sensor_id;sensor_type;location;lat;lon;timestamp;P1;durP1;ratioP1;P2;durP2;ratioP2
29662;SDS011;16578;53.266;7.920;2022-12-19T00:00:47;26.77;;;16.38;;
29662;SDS011;16578;53.266;7.920;2022-12-19T00:03:24;28.33;;;17.20;;
29662;SDS011;16578;53.266;7.920;2022-12-19T00:05:50;25.20;;;16.00;;
29662;SDS011;16578;53.266;7.920;2022-12-19T00:08:15;26.73;;;16.17;;
29662;SDS011;16578;53.266;7.920;2022-12-19T00:10:41;26.77;;;17.77;;
29662;SDS011;16578;53.266;7.920;2022-12-19T00:13:07;26.70;;;16.40;;
29662;SDS011;16578;53.266;7.920;2022-12-19T00:15:33;26.58;;;16.88;;
29662;SDS011;16578;53.266;7.920;2022-12-19T00:17:59;31.45;;;19.23;;
29662;SDS011;16578;53.266;7.920;2022-12-19T00:20:25;31.08;;;17.95;;
29662;SDS011;16578;53.266;7.920;2022-12-19T00:22:51;33.33;;;18.90;;
29662;SDS011;16578;53.266;7.920;2022-12-19T00:25:16;30.63;;;18.50;;
29662;SDS011;16578;53.266;7.920;2022-12-19T00:27:42;28.48;;;17.88;;
29662;SDS011;16578;53.266;7.920;2022-12-19T00:30:08;28.55;;;18.08;;
29662;SDS011;16578;53.266;7.920;2022-12-19T00:32:35;26.45;;;17.20;;
29662;SDS011;16578;53.266;7.920;2022-12-19T00:35:01;27.67;;;17.80;;
29662;SDS011;16578;53.266;7.920;2022-12-19T00:37:27;30.48;;;18.45;;
29662;SDS011;16578;53.266;7.920;2022-12-19T00:39:53;28.65;;;17.60;;
29662;SDS011;16578;53.266;7.920;2022-12-19T00:42:18;28.00;;;18.35;;
29662;SDS011;16578;53.266;7.920;2022-12-19T00:44:44;26.48;;;17.70;;
29662;SDS011;16578;53.266;7.920;2022-12-19T00:47:10;29.15;;;17.77;;
29662;SDS011;16578;53.266;7.920;2022-12-19T00:49:36;32.03;;;19.15;;
29662;SDS011;16578;53.266;7.920;2022-12-19T00:52:02;30.42;;;18.35;;
29662;SDS011;16578;53.266;7.920;2022-12-19T00:54:27;31.60;;;18.75;;
29662;SDS011;16578;53.266;7.920;2022-12-19T00:56:56;30.70;;;18.83;;
29662;SDS011;16578;53.266;7.920;2022-12-19T00:59:22;28.35;;;17.00;;
29662;SDS011;16578;53.266;7.920;2022-12-19T01:01:47;27.13;;;17.52;;
29662;SDS011;16578;53.266;7.920;2022-12-19T01:04:13;28.83;;;17.00;;
29662;SDS011;16578;53.266;7.920;2022-12-19T01:06:39;29.20;;;18.25;;
29662;SDS011;16578;53.266;7.920;2022-12-19T01:09:08;30.85;;;18.70;;
29662;SDS011;16578;53.266;7.920;2022-12-19T01:11:35;29.67;;;18.88;;
29662;SDS011;16578;53.266;7.920;2022-12-19T01:14:19;31.05;;;19.10;;
29662;SDS011;16578;53.266;7.920;2022-12-19T01:16:45;30.02;;;17.83;;
29662;SDS011;16578;53.266;7.920;2022-12-19T01:19:11;32.92;;;20.10;;
29662;SDS011;16578;53.266;7.920;2022-12-19T01:21:36;29.50;;;19.27;;
29662;SDS011;16578;53.266;7.920;2022-12-19T01:24:02;30.70;;;19.50;;
29662;SDS011;16578;53.266;7.920;2022-12-19T01:26:29;32.33;;;19.85;;
29662;SDS011;16578;53.266;7.920;2022-12-19T01:28:54;33.40;;;19.30;;
29662;SDS011;16578;53.266;7.920;2022-12-19T01:31:20;28.90;;;17.95;;
29662;SDS011;16578;53.266;7.920;2022-12-19T01:33:46;34.17;;;19.65;;
29662;SDS011;16578;53.266;7.920;2022-12-19T01:36:11;32.53;;;19.35;;
29662;SDS011;16578;53.266;7.920;2022-12-19T01:38:37;33.38;;;18.95;;
29662;SDS011;16578;53.266;7.920;2022-12-19T01:41:03;30.52;;;18.63;;
29662;SDS011;16578;53.266;7.920;2022-12-19T01:43:30;29.35;;;18.30;;
29662;SDS011;16578;53.266;7.920;2022-12-19T01:46:16;30.63;;;19.67;;
29662;SDS011;16578;53.266;7.920;2022-12-19T01:48:51;28.75;;;18.67;;
29662;SDS011;16578;53.266;7.920;2022-12-19T01:51:18;28.52;;;17.90;;
29662;SDS011;16578;53.266;7.920;2022-12-19T01:53:47;33.47;;;19.40;;
29662;SDS011;16578;53.266;7.920;2022-12-19T01:56:17;30.38;;;19.02;;
29662;SDS011;16578;53.266;7.920;2022-12-19T01:58:48;32.28;;;19.00;;
29662;SDS011;16578;53.266;7.920;2022-12-19T02:01:15;32.95;;;19.00;;
29662;SDS011;16578;53.266;7.920;2022-12-19T02:03:42;33.20;;;19.55;;
29662;SDS011;16578;53.266;7.920;2022-12-19T02:06:09;31.58;;;21.05;;
29662;SDS011;16578;53.266;7.920;2022-12-19T02:08:41;31.17;;;20.38;;
29662;SDS011;16578;53.266;7.920;2022-12-19T02:11:10;30.52;;;19.20;;
29662;SDS011;16578;53.266;7.920;2022-12-19T02:13:35;31.08;;;18.42;;
29662;SDS011;16578;53.266;7.920;2022-12-19T02:26:31;34.88;;;20.45;;
29662;SDS011;16578;53.266;7.920;2022-12-19T02:34:58;28.33;;;17.40;;
29662;SDS011;16578;53.266;7.920;2022-12-19T02:40:40;31.33;;;18.98;;
29662;SDS011;16578;53.266;7.920;2022-12-19T02:43:11;33.88;;;19.90;;
29662;SDS011;16578;53.266;7.920;2022-12-19T02:45:39;31.88;;;20.45;;
29662;SDS011;16578;53.266;7.920;2022-12-19T02:48:06;31.73;;;20.10;;
29662;SDS011;16578;53.266;7.920;2022-12-19T02:50:37;35.30;;;20.15;;
29662;SDS011;16578;53.266;7.920;2022-12-19T02:53:05;31.05;;;19.98;;
29662;SDS011;16578;53.266;7.920;2022-12-19T02:55:35;23.63;;;14.80;;
29662;SDS011;16578;53.266;7.920;2022-12-19T02:58:31;33.60;;;18.63;;
29662;SDS011;16578;53.266;7.920;2022-12-19T03:01:16;29.10;;;17.67;;
29662;SDS011;16578;53.266;7.920;2022-12-19T03:09:13;31.67;;;17.83;;
29662;SDS011;16578;53.266;7.920;2022-12-19T03:11:40;30.10;;;19.10;;
29662;SDS011;16578;53.266;7.920;2022-12-19T03:14:16;33.50;;;21.38;;
29662;SDS011;16578;53.266;7.920;2022-12-19T03:16:44;31.05;;;19.05;;
29662;SDS011;16578;53.266;7.920;2022-12-19T03:19:11;36.88;;;20.67;;
29662;SDS011;16578;53.266;7.920;2022-12-19T03:21:42;32.35;;;19.88;;
29662;SDS011;16578;53.266;7.920;2022-12-19T03:24:10;30.80;;;18.48;;
29662;SDS011;16578;53.266;7.920;2022-12-19T03:26:43;30.80;;;19.02;;
29662;SDS011;16578;53.266;7.920;2022-12-19T03:29:42;33.03;;;18.70;;
29662;SDS011;16578;53.266;7.920;2022-12-19T03:32:17;29.83;;;18.15;;
29662;SDS011;16578;53.266;7.920;2022-12-19T03:37:16;26.23;;;16.08;;
29662;SDS011;16578;53.266;7.920;2022-12-19T03:39:46;28.63;;;18.27;;
29662;SDS011;16578;53.266;7.920;2022-12-19T03:42:16;35.42;;;20.08;;
29662;SDS011;16578;53.266;7.920;2022-12-19T03:45:03;28.92;;;17.15;;
29662;SDS011;16578;53.266;7.920;2022-12-19T03:47:50;27.85;;;18.13;;
29662;SDS011;16578;53.266;7.920;2022-12-19T03:50:21;33.17;;;19.98;;
29662;SDS011;16578;53.266;7.920;2022-12-19T03:55:16;30.95;;;18.83;;
29662;SDS011;16578;53.266;7.920;2022-12-19T03:57:46;34.20;;;18.95;;
29662;SDS011;16578;53.266;7.920;2022-12-19T04:00:20;27.65;;;18.40;;
29662;SDS011;16578;53.266;7.920;2022-12-19T04:02:50;29.95;;;18.95;;
29662;SDS011;16578;53.266;7.920;2022-12-19T04:05:18;32.67;;;19.23;;
29662;SDS011;16578;53.266;7.920;2022-12-19T04:10:16;27.92;;;16.98;;
29662;SDS011;16578;53.266;7.920;2022-12-19T04:12:47;29.73;;;18.00;;
29662;SDS011;16578;53.266;7.920;2022-12-19T04:15:19;32.03;;;18.00;;
29662;SDS011;16578;53.266;7.920;2022-12-19T04:17:56;32.70;;;18.35;;
29662;SDS011;16578;53.266;7.920;2022-12-19T04:20:24;28.67;;;18.60;;
29662;SDS011;16578;53.266;7.920;2022-12-19T04:22:51;29.73;;;18.37;;
29662;SDS011;16578;53.266;7.920;2022-12-19T04:25:49;33.88;;;18.85;;
29662;SDS011;16578;53.266;7.920;2022-12-19T04:28:28;33.40;;;19.42;;
29662;SDS011;16578;53.266;7.920;2022-12-19T04:30:58;28.08;;;16.45;;
29662;SDS011;16578;53.266;7.920;2022-12-19T04:33:25;30.98;;;19.15;;
29662;SDS011;16578;53.266;7.920;2022-12-19T04:35:50;29.38;;;18.92;;
29662;SDS011;16578;53.266;7.920;2022-12-19T04:38:16;33.42;;;19.98;;
29662;SDS011;16578;53.266;7.920;2022-12-19T04:40:44;29.35;;;19.13;;
29662;SDS011;16578;53.266;7.920;2022-12-19T04:43:10;28.30;;;18.30;;
29662;SDS011;16578;53.266;7.920;2022-12-19T04:45:36;33.35;;;18.40;;
29662;SDS011;16578;53.266;7.920;2022-12-19T04:48:01;31.60;;;17.23;;
29662;SDS011;16578;53.266;7.920;2022-12-19T04:50:27;29.13;;;17.95;;
29662;SDS011;16578;53.266;7.920;2022-12-19T04:52:56;31.85;;;19.42;;
29662;SDS011;16578;53.266;7.920;2022-12-19T04:55:21;27.50;;;17.05;;
29662;SDS011;16578;53.266;7.920;2022-12-19T04:57:47;30.85;;;17.52;;
29662;SDS011;16578;53.266;7.920;2022-12-19T05:00:13;30.58;;;18.42;;
29662;SDS011;16578;53.266;7.920;2022-12-19T05:02:39;32.80;;;18.25;;
29662;SDS011;16578;53.266;7.920;2022-12-19T05:05:05;29.98;;;18.48;;
29662;SDS011;16578;53.266;7.920;2022-12-19T05:07:31;30.55;;;18.30;;
29662;SDS011;16578;53.266;7.920;2022-12-19T05:09:59;29.65;;;18.58;;
29662;SDS011;16578;53.266;7.920;2022-12-19T05:12:26;28.27;;;17.60;;
29662;SDS011;16578;53.266;7.920;2022-12-19T05:14:53;30.38;;;18.70;;
29662;SDS011;16578;53.266;7.920;2022-12-19T05:17:18;28.35;;;17.63;;
29662;SDS011;16578;53.266;7.920;2022-12-19T05:19:44;34.13;;;19.60;;
29662;SDS011;16578;53.266;7.920;2022-12-19T05:22:09;30.08;;;19.48;;
29662;SDS011;16578;53.266;7.920;2022-12-19T05:24:35;28.38;;;17.83;;
29662;SDS011;16578;53.266;7.920;2022-12-19T05:27:00;31.48;;;18.67;;
29662;SDS011;16578;53.266;7.920;2022-12-19T05:29:26;33.40;;;18.65;;
29662;SDS011;16578;53.266;7.920;2022-12-19T05:31:52;30.85;;;19.15;;
29662;SDS011;16578;53.266;7.920;2022-12-19T05:34:17;27.33;;;17.00;;
29662;SDS011;16578;53.266;7.920;2022-12-19T05:36:43;31.67;;;18.63;;
29662;SDS011;16578;53.266;7.920;2022-12-19T05:39:08;28.52;;;17.65;;
29662;SDS011;16578;53.266;7.920;2022-12-19T05:41:35;30.33;;;18.10;;
29662;SDS011;16578;53.266;7.920;2022-12-19T05:44:01;28.70;;;18.52;;
29662;SDS011;16578;53.266;7.920;2022-12-19T05:46:28;26.77;;;18.05;;
29662;SDS011;16578;53.266;7.920;2022-12-19T05:48:53;32.70;;;19.67;;
29662;SDS011;16578;53.266;7.920;2022-12-19T05:51:19;30.23;;;17.90;;
29662;SDS011;16578;53.266;7.920;2022-12-19T05:53:45;28.65;;;17.65;;
29662;SDS011;16578;53.266;7.920;2022-12-19T05:56:12;28.05;;;17.85;;
29662;SDS011;16578;53.266;7.920;2022-12-19T05:58:40;30.15;;;17.50;;
29662;SDS011;16578;53.266;7.920;2022-12-19T06:03:36;27.10;;;16.50;;
29662;SDS011;16578;53.266;7.920;2022-12-19T06:06:06;32.13;;;18.65;;
29662;SDS011;16578;53.266;7.920;2022-12-19T06:08:34;27.70;;;16.48;;
29662;SDS011;16578;53.266;7.920;2022-12-19T06:11:03;30.63;;;17.95;;
29662;SDS011;16578;53.266;7.920;2022-12-19T06:13:31;26.85;;;16.60;;
29662;SDS011;16578;53.266;7.920;2022-12-19T06:16:00;25.00;;;16.23;;
29662;SDS011;16578;53.266;7.920;2022-12-19T06:18:31;27.63;;;16.00;;
29662;SDS011;16578;53.266;7.920;2022-12-19T06:20:57;26.42;;;16.55;;
29662;SDS011;16578;53.266;7.920;2022-12-19T06:23:24;26.63;;;17.08;;
29662;SDS011;16578;53.266;7.920;2022-12-19T06:25:50;32.50;;;19.08;;
29662;SDS011;16578;53.266;7.920;2022-12-19T06:28:15;27.58;;;17.38;;
29662;SDS011;16578;53.266;7.920;2022-12-19T06:30:41;27.27;;;16.48;;
29662;SDS011;16578;53.266;7.920;2022-12-19T06:33:07;25.88;;;17.50;;
29662;SDS011;16578;53.266;7.920;2022-12-19T06:35:32;26.30;;;16.50;;
29662;SDS011;16578;53.266;7.920;2022-12-19T06:37:58;27.00;;;17.00;;
29662;SDS011;16578;53.266;7.920;2022-12-19T06:40:23;27.20;;;16.98;;
29662;SDS011;16578;53.266;7.920;2022-12-19T06:43:07;31.58;;;18.48;;
29662;SDS011;16578;53.266;7.920;2022-12-19T06:45:33;25.63;;;16.75;;
29662;SDS011;16578;53.266;7.920;2022-12-19T06:47:58;27.88;;;17.58;;
29662;SDS011;16578;53.266;7.920;2022-12-19T06:50:24;27.67;;;17.35;;
29662;SDS011;16578;53.266;7.920;2022-12-19T06:52:49;28.48;;;17.10;;
29662;SDS011;16578;53.266;7.920;2022-12-19T06:55:15;29.73;;;17.73;;
29662;SDS011;16578;53.266;7.920;2022-12-19T06:57:41;27.85;;;16.50;;
29662;SDS011;16578;53.266;7.920;2022-12-19T07:00:11;30.45;;;17.75;;
29662;SDS011;16578;53.266;7.920;2022-12-19T07:02:37;29.43;;;18.07;;
29662;SDS011;16578;53.266;7.920;2022-12-19T07:05:04;27.52;;;18.13;;
29662;SDS011;16578;53.266;7.920;2022-12-19T07:07:31;27.45;;;18.40;;
29662;SDS011;16578;53.266;7.920;2022-12-19T07:09:57;29.33;;;18.55;;
29662;SDS011;16578;53.266;7.920;2022-12-19T07:12:23;29.73;;;19.33;;
29662;SDS011;16578;53.266;7.920;2022-12-19T07:14:49;28.35;;;17.90;;
29662;SDS011;16578;53.266;7.920;2022-12-19T07:17:14;29.23;;;17.67;;
29662;SDS011;16578;53.266;7.920;2022-12-19T07:19:40;28.75;;;18.45;;
29662;SDS011;16578;53.266;7.920;2022-12-19T07:22:06;28.08;;;19.50;;
29662;SDS011;16578;53.266;7.920;2022-12-19T07:24:33;34.17;;;21.23;;
29662;SDS011;16578;53.266;7.920;2022-12-19T07:27:00;31.08;;;19.05;;
29662;SDS011;16578;53.266;7.920;2022-12-19T07:29:26;29.88;;;16.27;;
29662;SDS011;16578;53.266;7.920;2022-12-19T07:31:52;30.88;;;19.45;;
29662;SDS011;16578;53.266;7.920;2022-12-19T07:34:17;28.30;;;19.73;;
29662;SDS011;16578;53.266;7.920;2022-12-19T07:36:43;23.40;;;16.98;;
29662;SDS011;16578;53.266;7.920;2022-12-19T07:39:08;24.10;;;17.35;;
29662;SDS011;16578;53.266;7.920;2022-12-19T07:41:37;26.77;;;17.40;;
29662;SDS011;16578;53.266;7.920;2022-12-19T07:46:29;29.98;;;16.77;;
29662;SDS011;16578;53.266;7.920;2022-12-19T07:48:57;23.38;;;15.70;;
29662;SDS011;16578;53.266;7.920;2022-12-19T07:51:23;23.63;;;16.23;;
29662;SDS011;16578;53.266;7.920;2022-12-19T07:53:49;22.15;;;16.33;;
29662;SDS011;16578;53.266;7.920;2022-12-19T07:56:14;23.98;;;17.13;;
29662;SDS011;16578;53.266;7.920;2022-12-19T07:58:41;22.60;;;17.08;;
29662;SDS011;16578;53.266;7.920;2022-12-19T08:01:08;27.40;;;20.13;;
29662;SDS011;16578;53.266;7.920;2022-12-19T08:03:34;23.27;;;17.35;;
29662;SDS011;16578;53.266;7.920;2022-12-19T08:06:00;24.13;;;18.00;;
29662;SDS011;16578;53.266;7.920;2022-12-19T08:08:28;27.00;;;17.10;;
29662;SDS011;16578;53.266;7.920;2022-12-19T08:10:54;21.58;;;15.75;;
29662;SDS011;16578;53.266;7.920;2022-12-19T08:13:21;26.20;;;17.88;;
29662;SDS011;16578;53.266;7.920;2022-12-19T08:15:46;24.50;;;17.70;;
29662;SDS011;16578;53.266;7.920;2022-12-19T08:18:12;24.13;;;15.82;;
29662;SDS011;16578;53.266;7.920;2022-12-19T08:20:38;24.13;;;15.82;;
29662;SDS011;16578;53.266;7.920;2022-12-19T08:23:03;21.95;;;16.23;;
29662;SDS011;16578;53.266;7.920;2022-12-19T08:25:29;23.52;;;17.35;;
29662;SDS011;16578;53.266;7.920;2022-12-19T08:27:54;23.20;;;16.75;;
29662;SDS011;16578;53.266;7.920;2022-12-19T08:30:20;21.17;;;15.07;;
29662;SDS011;16578;53.266;7.920;2022-12-19T08:32:46;22.52;;;15.05;;
29662;SDS011;16578;53.266;7.920;2022-12-19T08:35:12;21.50;;;14.32;;
29662;SDS011;16578;53.266;7.920;2022-12-19T08:37:37;19.60;;;14.15;;
29662;SDS011;16578;53.266;7.920;2022-12-19T08:40:03;20.60;;;14.25;;
29662;SDS011;16578;53.266;7.920;2022-12-19T08:42:29;22.23;;;15.27;;
29662;SDS011;16578;53.266;7.920;2022-12-19T08:44:55;22.17;;;16.17;;
29662;SDS011;16578;53.266;7.920;2022-12-19T08:47:20;21.50;;;15.73;;
29662;SDS011;16578;53.266;7.920;2022-12-19T08:49:46;19.10;;;14.57;;
29662;SDS011;16578;53.266;7.920;2022-12-19T08:52:11;18.52;;;14.07;;
29662;SDS011;16578;53.266;7.920;2022-12-19T08:54:37;17.38;;;13.57;;
29662;SDS011;16578;53.266;7.920;2022-12-19T08:57:02;22.20;;;16.08;;
29662;SDS011;16578;53.266;7.920;2022-12-19T08:59:28;20.15;;;15.73;;
29662;SDS011;16578;53.266;7.920;2022-12-19T09:01:53;19.25;;;16.00;;
29662;SDS011;16578;53.266;7.920;2022-12-19T09:04:19;21.42;;;16.30;;
29662;SDS011;16578;53.266;7.920;2022-12-19T09:06:45;18.77;;;15.93;;
29662;SDS011;16578;53.266;7.920;2022-12-19T09:09:10;17.88;;;13.77;;
29662;SDS011;16578;53.266;7.920;2022-12-19T09:11:36;17.70;;;13.07;;
29662;SDS011;16578;53.266;7.920;2022-12-19T09:14:01;17.63;;;13.27;;
29662;SDS011;16578;53.266;7.920;2022-12-19T09:16:28;18.02;;;14.18;;
29662;SDS011;16578;53.266;7.920;2022-12-19T09:18:55;17.38;;;14.20;;
29662;SDS011;16578;53.266;7.920;2022-12-19T09:21:23;17.40;;;13.73;;
29662;SDS011;16578;53.266;7.920;2022-12-19T09:23:50;15.95;;;13.02;;
29662;SDS011;16578;53.266;7.920;2022-12-19T09:26:21;16.45;;;13.77;;
29662;SDS011;16578;53.266;7.920;2022-12-19T09:28:48;18.48;;;14.07;;
29662;SDS011;16578;53.266;7.920;2022-12-19T09:31:15;16.48;;;13.95;;
29662;SDS011;16578;53.266;7.920;2022-12-19T09:33:43;17.13;;;13.00;;
29662;SDS011;16578;53.266;7.920;2022-12-19T09:36:12;16.52;;;13.18;;
29662;SDS011;16578;53.266;7.920;2022-12-19T09:38:39;17.10;;;13.38;;
29662;SDS011;16578;53.266;7.920;2022-12-19T09:46:21;18.35;;;13.20;;
29662;SDS011;16578;53.266;7.920;2022-12-19T09:48:59;14.63;;;12.48;;
29662;SDS011;16578;53.266;7.920;2022-12-19T09:56:47;15.80;;;11.90;;
29662;SDS011;16578;53.266;7.920;2022-12-19T09:59:30;13.00;;;10.68;;
29662;SDS011;16578;53.266;7.920;2022-12-19T10:02:03;12.68;;;10.68;;
29662;SDS011;16578;53.266;7.920;2022-12-19T10:04:48;12.75;;;11.45;;
29662;SDS011;16578;53.266;7.920;2022-12-19T10:07:20;13.90;;;11.32;;
29662;SDS011;16578;53.266;7.920;2022-12-19T10:09:46;11.88;;;10.07;;
29662;SDS011;16578;53.266;7.920;2022-12-19T10:17:37;11.45;;;10.25;;
29662;SDS011;16578;53.266;7.920;2022-12-19T10:20:22;10.38;;;9.25;;
29662;SDS011;16578;53.266;7.920;2022-12-19T10:23:06;10.27;;;9.07;;
29662;SDS011;16578;53.266;7.920;2022-12-19T10:28:41;9.88;;;8.82;;
29662;SDS011;16578;53.266;7.920;2022-12-19T10:36:26;11.45;;;10.27;;
29662;SDS011;16578;53.266;7.920;2022-12-19T10:38:57;10.77;;;9.73;;
29662;SDS011;16578;53.266;7.920;2022-12-19T10:41:32;11.85;;;10.65;;
29662;SDS011;16578;53.266;7.920;2022-12-19T10:46:41;9.50;;;8.57;;
29662;SDS011;16578;53.266;7.920;2022-12-19T10:51:41;11.30;;;10.15;;
29662;SDS011;16578;53.266;7.920;2022-12-19T10:54:16;11.95;;;10.25;;
29662;SDS011;16578;53.266;7.920;2022-12-19T10:56:42;11.73;;;10.48;;
29662;SDS011;16578;53.266;7.920;2022-12-19T10:59:14;11.02;;;9.90;;
29662;SDS011;16578;53.266;7.920;2022-12-19T11:01:41;12.88;;;11.57;;
29662;SDS011;16578;53.266;7.920;2022-12-19T11:04:12;16.10;;;14.50;;
29662;SDS011;16578;53.266;7.920;2022-12-19T11:06:46;14.35;;;12.82;;
29662;SDS011;16578;53.266;7.920;2022-12-19T11:09:20;17.10;;;14.27;;
29662;SDS011;16578;53.266;7.920;2022-12-19T11:11:56;15.95;;;14.27;;
29662;SDS011;16578;53.266;7.920;2022-12-19T11:14:31;17.60;;;15.73;;
29662;SDS011;16578;53.266;7.920;2022-12-19T11:16:57;19.50;;;15.82;;
29662;SDS011;16578;53.266;7.920;2022-12-19T11:19:27;19.75;;;17.75;;
29662;SDS011;16578;53.266;7.920;2022-12-19T11:21:56;18.05;;;15.95;;
29662;SDS011;16578;53.266;7.920;2022-12-19T11:24:28;16.75;;;14.65;;
29662;SDS011;16578;53.266;7.920;2022-12-19T11:26:59;19.23;;;16.17;;
29662;SDS011;16578;53.266;7.920;2022-12-19T11:29:41;18.33;;;15.77;;
29662;SDS011;16578;53.266;7.920;2022-12-19T11:32:30;16.42;;;13.77;;
29662;SDS011;16578;53.266;7.920;2022-12-19T11:35:00;14.70;;;13.20;;
29662;SDS011;16578;53.266;7.920;2022-12-19T11:37:34;15.75;;;14.13;;
29662;SDS011;16578;53.266;7.920;2022-12-19T11:40:27;15.73;;;13.90;;
29662;SDS011;16578;53.266;7.920;2022-12-19T11:45:32;17.30;;;14.93;;
29662;SDS011;16578;53.266;7.920;2022-12-19T11:51:16;16.88;;;15.10;;
29662;SDS011;16578;53.266;7.920;2022-12-19T11:53:48;15.75;;;14.15;;
29662;SDS011;16578;53.266;7.920;2022-12-19T11:56:15;15.35;;;12.93;;
29662;SDS011;16578;53.266;7.920;2022-12-19T11:58:46;16.00;;;14.27;;
29662;SDS011;16578;53.266;7.920;2022-12-19T12:06:32;14.48;;;11.90;;
29662;SDS011;16578;53.266;7.920;2022-12-19T12:09:03;16.40;;;13.98;;
29662;SDS011;16578;53.266;7.920;2022-12-19T12:20:02;13.90;;;12.00;;
29662;SDS011;16578;53.266;7.920;2022-12-19T12:23:06;14.82;;;12.30;;
29662;SDS011;16578;53.266;7.920;2022-12-19T12:26:02;14.90;;;12.00;;
29662;SDS011;16578;53.266;7.920;2022-12-19T12:42:40;14.82;;;11.73;;
29662;SDS011;16578;53.266;7.920;2022-12-19T12:45:35;14.02;;;11.25;;
29662;SDS011;16578;53.266;7.920;2022-12-19T12:48:09;14.05;;;11.30;;
29662;SDS011;16578;53.266;7.920;2022-12-19T12:50:45;12.05;;;9.55;;
29662;SDS011;16578;53.266;7.920;2022-12-19T12:53:12;10.70;;;9.60;;
29662;SDS011;16578;53.266;7.920;2022-12-19T12:55:41;11.77;;;10.45;;
29662;SDS011;16578;53.266;7.920;2022-12-19T13:03:53;12.68;;;10.40;;
29662;SDS011;16578;53.266;7.920;2022-12-19T13:06:42;11.50;;;9.77;;
29662;SDS011;16578;53.266;7.920;2022-12-19T13:09:32;12.98;;;10.90;;
29662;SDS011;16578;53.266;7.920;2022-12-19T13:22:42;15.35;;;10.82;;
29662;SDS011;16578;53.266;7.920;2022-12-19T13:26:10;15.48;;;11.38;;
29662;SDS011;16578;53.266;7.920;2022-12-19T13:39:22;16.27;;;12.68;;
29662;SDS011;16578;53.266;7.920;2022-12-19T13:41:58;18.33;;;11.80;;
29662;SDS011;16578;53.266;7.920;2022-12-19T13:45:06;13.43;;;10.88;;
29662;SDS011;16578;53.266;7.920;2022-12-19T13:47:38;15.90;;;12.43;;
29662;SDS011;16578;53.266;7.920;2022-12-19T13:50:29;16.35;;;13.57;;
29662;SDS011;16578;53.266;7.920;2022-12-19T13:53:00;16.90;;;12.50;;
29662;SDS011;16578;53.266;7.920;2022-12-19T13:55:29;13.65;;;12.05;;
29662;SDS011;16578;53.266;7.920;2022-12-19T14:00:28;13.15;;;11.75;;
29662;SDS011;16578;53.266;7.920;2022-12-19T14:02:57;14.88;;;12.32;;
29662;SDS011;16578;53.266;7.920;2022-12-19T14:08:02;14.43;;;12.95;;
29662;SDS011;16578;53.266;7.920;2022-12-19T14:12:56;14.60;;;11.82;;
29662;SDS011;16578;53.266;7.920;2022-12-19T14:15:43;14.05;;;11.60;;
29662;SDS011;16578;53.266;7.920;2022-12-19T14:18:23;13.88;;;11.98;;
29662;SDS011;16578;53.266;7.920;2022-12-19T14:20:50;11.80;;;10.65;;
29662;SDS011;16578;53.266;7.920;2022-12-19T14:23:31;16.98;;;12.65;;
29662;SDS011;16578;53.266;7.920;2022-12-19T14:25:56;15.07;;;12.45;;
29662;SDS011;16578;53.266;7.920;2022-12-19T14:28:34;14.85;;;13.25;;
29662;SDS011;16578;53.266;7.920;2022-12-19T14:31:06;22.73;;;16.35;;
29662;SDS011;16578;53.266;7.920;2022-12-19T14:33:41;24.15;;;18.38;;
29662;SDS011;16578;53.266;7.920;2022-12-19T14:36:12;19.25;;;17.10;;
29662;SDS011;16578;53.266;7.920;2022-12-19T14:38:44;21.90;;;17.92;;
29662;SDS011;16578;53.266;7.920;2022-12-19T14:41:18;27.98;;;22.05;;
29662;SDS011;16578;53.266;7.920;2022-12-19T14:44:11;25.27;;;18.77;;
29662;SDS011;16578;53.266;7.920;2022-12-19T14:46:40;21.92;;;18.20;;
29662;SDS011;16578;53.266;7.920;2022-12-19T14:49:23;22.23;;;16.75;;
29662;SDS011;16578;53.266;7.920;2022-12-19T14:51:48;16.17;;;14.48;;
29662;SDS011;16578;53.266;7.920;2022-12-19T14:54:15;14.40;;;12.57;;
29662;SDS011;16578;53.266;7.920;2022-12-19T14:56:44;17.63;;;13.60;;
29662;SDS011;16578;53.266;7.920;2022-12-19T15:02:25;25.25;;;22.63;;
29662;SDS011;16578;53.266;7.920;2022-12-19T15:04:59;17.92;;;15.82;;
29662;SDS011;16578;53.266;7.920;2022-12-19T15:07:28;17.27;;;13.15;;
29662;SDS011;16578;53.266;7.920;2022-12-19T15:09:57;14.88;;;12.35;;
29662;SDS011;16578;53.266;7.920;2022-12-19T15:12:31;13.65;;;12.25;;
29662;SDS011;16578;53.266;7.920;2022-12-19T15:15:42;14.98;;;11.70;;
29662;SDS011;16578;53.266;7.920;2022-12-19T15:18:24;13.43;;;10.77;;
29662;SDS011;16578;53.266;7.920;2022-12-19T15:20:52;17.45;;;12.40;;
29662;SDS011;16578;53.266;7.920;2022-12-19T15:23:20;15.02;;;12.15;;
29662;SDS011;16578;53.266;7.920;2022-12-19T15:25:46;15.57;;;11.93;;
29662;SDS011;16578;53.266;7.920;2022-12-19T15:28:16;14.60;;;12.27;;
29662;SDS011;16578;53.266;7.920;2022-12-19T15:30:51;16.65;;;11.73;;
29662;SDS011;16578;53.266;7.920;2022-12-19T15:33:22;15.43;;;12.52;;
29662;SDS011;16578;53.266;7.920;2022-12-19T15:35:47;14.35;;;11.73;;
29662;SDS011;16578;53.266;7.920;2022-12-19T15:38:13;13.98;;;11.40;;
29662;SDS011;16578;53.266;7.920;2022-12-19T15:40:39;15.57;;;11.70;;
29662;SDS011;16578;53.266;7.920;2022-12-19T15:43:14;14.20;;;11.05;;
29662;SDS011;16578;53.266;7.920;2022-12-19T15:45:48;13.20;;;10.85;;
29662;SDS011;16578;53.266;7.920;2022-12-19T15:48:18;14.30;;;11.55;;
29662;SDS011;16578;53.266;7.920;2022-12-19T15:50:43;20.13;;;16.40;;
29662;SDS011;16578;53.266;7.920;2022-12-19T15:53:16;23.60;;;19.00;;
29662;SDS011;16578;53.266;7.920;2022-12-19T15:55:45;27.23;;;20.17;;
29662;SDS011;16578;53.266;7.920;2022-12-19T15:58:12;15.43;;;13.07;;
29662;SDS011;16578;53.266;7.920;2022-12-19T16:00:38;13.05;;;11.15;;
29662;SDS011;16578;53.266;7.920;2022-12-19T16:03:11;12.55;;;10.43;;
29662;SDS011;16578;53.266;7.920;2022-12-19T16:05:37;13.20;;;11.27;;
29662;SDS011;16578;53.266;7.920;2022-12-19T16:08:17;14.70;;;12.30;;
29662;SDS011;16578;53.266;7.920;2022-12-19T16:10:46;15.27;;;12.57;;
29662;SDS011;16578;53.266;7.920;2022-12-19T16:13:17;13.55;;;10.65;;
29662;SDS011;16578;53.266;7.920;2022-12-19T16:15:46;11.82;;;9.43;;
29662;SDS011;16578;53.266;7.920;2022-12-19T16:18:12;12.45;;;8.88;;
29662;SDS011;16578;53.266;7.920;2022-12-19T16:20:39;12.85;;;10.18;;
29662;SDS011;16578;53.266;7.920;2022-12-19T16:23:05;13.05;;;9.60;;
29662;SDS011;16578;53.266;7.920;2022-12-19T16:25:38;12.13;;;10.00;;
29662;SDS011;16578;53.266;7.920;2022-12-19T16:28:06;11.90;;;9.52;;
29662;SDS011;16578;53.266;7.920;2022-12-19T16:30:39;13.68;;;10.52;;
29662;SDS011;16578;53.266;7.920;2022-12-19T16:33:12;11.43;;;9.32;;
29662;SDS011;16578;53.266;7.920;2022-12-19T16:35:45;11.60;;;9.63;;
29662;SDS011;16578;53.266;7.920;2022-12-19T16:38:11;13.05;;;9.93;;
29662;SDS011;16578;53.266;7.920;2022-12-19T16:40:38;11.55;;;9.50;;
29662;SDS011;16578;53.266;7.920;2022-12-19T16:43:09;12.32;;;9.85;;
29662;SDS011;16578;53.266;7.920;2022-12-19T16:45:43;13.77;;;10.60;;
29662;SDS011;16578;53.266;7.920;2022-12-19T16:48:20;13.60;;;10.90;;
29662;SDS011;16578;53.266;7.920;2022-12-19T16:50:49;12.63;;;9.75;;
29662;SDS011;16578;53.266;7.920;2022-12-19T16:53:15;11.93;;;9.93;;
29662;SDS011;16578;53.266;7.920;2022-12-19T16:55:41;13.02;;;10.77;;
29662;SDS011;16578;53.266;7.920;2022-12-19T16:58:29;15.32;;;11.95;;